createdAt,value
2016-11-07T00:00:03.898Z,0
2016-11-07T00:01:03.749Z,0
2016-11-07T00:02:03.996Z,0
2016-11-07T00:03:03.924Z,0
2016-11-07T00:04:03.730Z,0
2016-11-07T00:05:03.930Z,0
2016-11-07T00:06:04.218Z,0
2016-11-07T00:07:03.681Z,0
2016-11-07T00:08:03.796Z,0
2016-11-07T00:09:03.871Z,0
2016-11-07T00:10:04.328Z,0
2016-11-07T00:11:04.543Z,0
2016-11-07T00:12:03.824Z,0
2016-11-07T00:13:03.873Z,0
2016-11-07T00:14:03.749Z,0
2016-11-07T00:15:03.876Z,0
2016-11-07T00:16:03.726Z,0
2016-11-07T00:17:03.702Z,0
2016-11-07T00:18:04.032Z,0
2016-11-07T00:19:03.673Z,0
2016-11-07T00:20:03.869Z,0
2016-11-07T00:21:03.732Z,0
2016-11-07T00:22:03.734Z,0
2016-11-07T00:23:03.713Z,0
2016-11-07T00:24:03.699Z,0
2016-11-07T00:25:03.747Z,0
2016-11-07T00:26:04.020Z,0
2016-11-07T00:27:04.589Z,0
2016-11-07T00:28:04.221Z,0
2016-11-07T00:29:04.064Z,0
2016-11-07T00:30:03.933Z,0
2016-11-07T00:31:04.266Z,0
2016-11-07T00:32:03.722Z,0
2016-11-07T00:33:03.709Z,0
2016-11-07T00:34:03.748Z,0
2016-11-07T00:35:03.843Z,0
2016-11-07T00:36:03.693Z,0
2016-11-07T00:37:03.885Z,0
2016-11-07T00:38:03.802Z,0
2016-11-07T00:39:03.869Z,0
2016-11-07T00:40:03.728Z,0
2016-11-07T00:41:03.891Z,0
2016-11-07T00:42:03.733Z,0
2016-11-07T00:43:03.740Z,0
2016-11-07T00:44:04.279Z,0
2016-11-07T00:45:03.604Z,0
2016-11-07T00:46:03.661Z,0
2016-11-07T00:47:03.692Z,0
2016-11-07T00:48:04.278Z,0
2016-11-07T00:49:04.112Z,0
2016-11-07T00:50:04.202Z,0
2016-11-07T00:51:03.593Z,0
2016-11-07T00:52:04.486Z,0
2016-11-07T00:53:04.057Z,0
2016-11-07T00:54:04.692Z,0
2016-11-07T00:55:03.974Z,0
2016-11-07T00:56:04.515Z,0
2016-11-07T00:57:03.655Z,0
2016-11-07T00:58:03.873Z,0
2016-11-07T00:59:03.695Z,0
2016-11-07T01:00:03.730Z,0
2016-11-07T01:01:04.059Z,0
2016-11-07T01:02:04.567Z,0
2016-11-07T01:03:03.740Z,0
2016-11-07T01:04:04.542Z,0
2016-11-07T01:05:03.895Z,0
2016-11-07T01:06:03.745Z,0
2016-11-07T01:07:03.859Z,0
2016-11-07T01:08:03.648Z,0
2016-11-07T01:09:03.981Z,0
2016-11-07T01:10:03.792Z,0
2016-11-07T01:11:03.702Z,0
2016-11-07T01:12:03.961Z,0
2016-11-07T01:13:03.677Z,0
2016-11-07T01:14:03.721Z,0
2016-11-07T01:15:03.677Z,0
2016-11-07T01:16:03.887Z,0
2016-11-07T01:17:03.652Z,0
2016-11-07T01:18:03.722Z,0
2016-11-07T01:19:03.658Z,0
2016-11-07T01:20:03.664Z,0
2016-11-07T01:21:04.132Z,0
2016-11-07T01:22:04.535Z,0
2016-11-07T01:23:03.659Z,0
2016-11-07T01:24:03.691Z,0
2016-11-07T01:25:04.035Z,0
2016-11-07T01:26:04.781Z,0
2016-11-07T01:27:03.629Z,0
2016-11-07T01:28:03.682Z,0
2016-11-07T01:29:03.731Z,0
2016-11-07T01:30:03.629Z,0
2016-11-07T01:31:03.728Z,0
2016-11-07T01:32:03.695Z,0
2016-11-07T01:33:03.699Z,0
2016-11-07T01:34:03.682Z,0
2016-11-07T01:35:03.642Z,0
2016-11-07T01:36:04.619Z,0
2016-11-07T01:37:04.049Z,0
2016-11-07T01:38:04.639Z,0
2016-11-07T01:39:03.633Z,0
2016-11-07T01:40:04.672Z,0
2016-11-07T01:41:03.932Z,0
2016-11-07T01:42:04.634Z,0
2016-11-07T01:43:04.758Z,0
2016-11-07T01:44:03.642Z,0
2016-11-07T01:45:03.729Z,0
2016-11-07T01:46:05.561Z,0
2016-11-07T01:47:04.715Z,0
2016-11-07T01:48:03.672Z,0
2016-11-07T01:49:03.708Z,0
2016-11-07T01:50:04.013Z,0
2016-11-07T01:51:03.715Z,0
2016-11-07T01:52:04.124Z,0
2016-11-07T01:53:03.651Z,0
2016-11-07T01:54:03.641Z,0
2016-11-07T01:55:03.815Z,0
2016-11-07T01:56:03.671Z,0
2016-11-07T01:57:03.935Z,0
2016-11-07T01:58:03.622Z,0
2016-11-07T01:59:04.200Z,0
2016-11-07T02:00:03.619Z,0
2016-11-07T02:01:05.015Z,0
2016-11-07T02:02:03.896Z,0
2016-11-07T02:03:03.760Z,0
2016-11-07T02:04:03.598Z,0
2016-11-07T02:05:03.652Z,0
2016-11-07T02:06:03.659Z,0
2016-11-07T02:07:04.905Z,0
2016-11-07T02:08:03.917Z,0
2016-11-07T02:09:03.724Z,0
2016-11-07T02:10:03.628Z,0
2016-11-07T02:11:03.665Z,0
2016-11-07T02:12:03.715Z,0
2016-11-07T02:13:03.673Z,0
2016-11-07T02:14:04.342Z,0
2016-11-07T02:15:03.644Z,0
2016-11-07T02:16:03.770Z,0
2016-11-07T02:17:03.850Z,0
2016-11-07T02:18:03.681Z,0
2016-11-07T02:19:03.673Z,0
2016-11-07T02:20:03.802Z,0
2016-11-07T02:21:04.389Z,0
2016-11-07T02:22:03.649Z,0
2016-11-07T02:23:03.710Z,0
2016-11-07T02:24:03.657Z,0
2016-11-07T02:25:03.718Z,0
2016-11-07T02:26:03.695Z,0
2016-11-07T02:27:03.662Z,0
2016-11-07T02:28:03.789Z,0
2016-11-07T02:29:03.778Z,0
2016-11-07T02:30:03.646Z,0
2016-11-07T02:31:04.058Z,0
2016-11-07T02:32:03.689Z,0
2016-11-07T02:33:03.818Z,0
2016-11-07T02:34:03.840Z,0
2016-11-07T02:35:04.619Z,0
2016-11-07T02:36:03.723Z,0
2016-11-07T02:37:03.792Z,0
2016-11-07T02:38:03.705Z,0
2016-11-07T02:39:03.702Z,0
2016-11-07T02:40:03.968Z,0
2016-11-07T02:41:03.707Z,0
2016-11-07T02:42:03.725Z,0
2016-11-07T02:43:03.700Z,0
2016-11-07T02:44:03.664Z,0
2016-11-07T02:45:03.667Z,0
2016-11-07T02:46:03.674Z,0
2016-11-07T02:47:03.706Z,0
2016-11-07T02:48:03.735Z,0
2016-11-07T02:49:03.660Z,0
2016-11-07T02:50:03.664Z,0
2016-11-07T02:51:03.671Z,0
2016-11-07T02:52:03.662Z,0
2016-11-07T02:53:03.684Z,0
2016-11-07T02:54:03.658Z,0
2016-11-07T02:55:03.706Z,0
2016-11-07T02:56:03.711Z,0
2016-11-07T02:57:03.712Z,0
2016-11-07T02:58:03.699Z,0
2016-11-07T02:59:03.680Z,0
2016-11-07T03:00:03.675Z,0
2016-11-07T03:01:03.989Z,0
2016-11-07T03:02:03.777Z,0
2016-11-07T03:03:03.712Z,0
2016-11-07T03:04:03.693Z,0
2016-11-07T03:05:03.693Z,0
2016-11-07T03:06:03.696Z,0
2016-11-07T03:07:03.687Z,0
2016-11-07T03:08:03.697Z,0
2016-11-07T03:09:03.669Z,0
2016-11-07T03:10:03.698Z,0
2016-11-07T03:11:03.832Z,0
2016-11-07T03:12:03.703Z,0
2016-11-07T03:13:03.701Z,0
2016-11-07T03:14:03.674Z,0
2016-11-07T03:15:03.717Z,0
2016-11-07T03:16:03.659Z,0
2016-11-07T03:17:03.720Z,0
2016-11-07T03:18:03.719Z,0
2016-11-07T03:19:03.696Z,0
2016-11-07T03:20:03.678Z,0
2016-11-07T03:21:04.369Z,0
2016-11-07T03:22:03.728Z,0
2016-11-07T03:23:03.900Z,0
2016-11-07T03:24:03.796Z,0
2016-11-07T03:25:03.784Z,0
2016-11-07T03:26:03.729Z,0
2016-11-07T03:27:03.874Z,0
2016-11-07T03:28:03.720Z,0
2016-11-07T03:29:03.719Z,0
2016-11-07T03:30:03.691Z,0
2016-11-07T03:31:03.704Z,0
2016-11-07T03:32:03.699Z,0
2016-11-07T03:33:03.734Z,0
2016-11-07T03:34:03.708Z,0
2016-11-07T03:35:03.732Z,0
2016-11-07T03:36:03.825Z,0
2016-11-07T03:37:03.727Z,0
2016-11-07T03:38:04.420Z,0
2016-11-07T03:39:03.740Z,0
2016-11-07T03:40:03.796Z,0
2016-11-07T03:41:03.756Z,0
2016-11-07T03:42:03.730Z,0
2016-11-07T03:43:04.039Z,0
2016-11-07T03:44:03.729Z,0
2016-11-07T03:45:04.191Z,0
2016-11-07T03:46:03.754Z,0
2016-11-07T03:47:03.786Z,0
2016-11-07T03:48:03.726Z,0
2016-11-07T03:49:03.765Z,0
2016-11-07T03:50:03.706Z,0
2016-11-07T03:51:03.742Z,0
2016-11-07T03:52:03.752Z,0
2016-11-07T03:53:04.092Z,0
2016-11-07T03:54:04.134Z,0
2016-11-07T03:55:03.726Z,0
2016-11-07T03:56:03.718Z,0
2016-11-07T03:57:04.740Z,0
2016-11-07T03:58:03.765Z,0
2016-11-07T03:59:03.889Z,0
2016-11-07T04:00:03.772Z,0
2016-11-07T04:01:03.701Z,0
2016-11-07T04:02:03.736Z,0
2016-11-07T04:03:04.526Z,0
2016-11-07T04:04:03.816Z,0
2016-11-07T04:05:03.713Z,0
2016-11-07T04:06:03.726Z,0
2016-11-07T04:07:03.755Z,0
2016-11-07T04:08:03.759Z,0
2016-11-07T04:09:03.791Z,0
2016-11-07T04:10:03.729Z,0
2016-11-07T04:11:03.717Z,0
2016-11-07T04:12:03.719Z,0
2016-11-07T04:13:03.766Z,0
2016-11-07T04:14:05.068Z,0
2016-11-07T04:15:03.734Z,0
2016-11-07T04:16:03.755Z,0
2016-11-07T04:17:04.590Z,0
2016-11-07T04:18:03.777Z,0
2016-11-07T04:19:03.807Z,0
2016-11-07T04:20:03.973Z,0
2016-11-07T04:21:03.727Z,0
2016-11-07T04:22:03.723Z,0
2016-11-07T04:23:03.743Z,0
2016-11-07T04:24:03.753Z,0
2016-11-07T04:25:03.780Z,0
2016-11-07T04:26:03.767Z,0
2016-11-07T04:27:03.796Z,0
2016-11-07T04:28:05.288Z,0
2016-11-07T04:29:03.794Z,0
2016-11-07T04:30:03.774Z,0
2016-11-07T04:31:03.760Z,0
2016-11-07T04:32:03.793Z,0
2016-11-07T04:33:03.762Z,0
2016-11-07T04:34:03.794Z,0
2016-11-07T04:35:03.832Z,0
2016-11-07T04:36:03.756Z,0
2016-11-07T04:37:04.144Z,0
2016-11-07T04:38:04.152Z,0
2016-11-07T04:39:03.783Z,0
2016-11-07T04:40:03.812Z,0
2016-11-07T04:41:04.081Z,0
2016-11-07T04:42:03.796Z,0
2016-11-07T04:43:03.857Z,0
2016-11-07T04:44:04.699Z,0
2016-11-07T04:45:04.403Z,0
2016-11-07T04:46:04.258Z,0
2016-11-07T04:47:03.867Z,0
2016-11-07T04:48:03.969Z,0
2016-11-07T04:49:04.424Z,0
2016-11-07T04:50:03.857Z,0
2016-11-07T04:51:04.738Z,0
2016-11-07T04:52:03.910Z,0
2016-11-07T04:53:03.886Z,0
2016-11-07T04:54:03.878Z,0
2016-11-07T04:55:03.948Z,0
2016-11-07T04:56:03.910Z,0
2016-11-07T04:57:03.899Z,0
2016-11-07T04:58:04.655Z,0
2016-11-07T04:59:03.989Z,0
2016-11-07T05:00:04.661Z,0
2016-11-07T05:01:04.002Z,0
2016-11-07T05:02:04.101Z,0
2016-11-07T05:03:04.017Z,0
2016-11-07T05:04:03.936Z,0
2016-11-07T05:05:04.513Z,0
2016-11-07T05:06:04.078Z,0
2016-11-07T05:07:04.012Z,0
2016-11-07T05:08:03.973Z,0
2016-11-07T05:09:03.999Z,0
2016-11-07T05:10:04.173Z,0
2016-11-07T05:11:04.834Z,0
2016-11-07T05:12:04.390Z,0
2016-11-07T05:13:04.601Z,0
2016-11-07T05:14:04.443Z,0
2016-11-07T05:15:03.939Z,0
2016-11-07T05:16:04.136Z,0
2016-11-07T05:17:04.012Z,0
2016-11-07T05:18:03.945Z,0
2016-11-07T05:19:04.485Z,0
2016-11-07T05:20:03.980Z,0
2016-11-07T05:21:04.060Z,0
2016-11-07T05:22:03.979Z,0
2016-11-07T05:23:04.435Z,0
2016-11-07T05:24:04.965Z,0
2016-11-07T05:25:04.374Z,0
2016-11-07T05:26:04.904Z,0
2016-11-07T05:27:03.977Z,0
2016-11-07T05:28:04.613Z,0
2016-11-07T05:29:04.006Z,0
2016-11-07T05:30:04.731Z,0
2016-11-07T05:31:03.976Z,0
2016-11-07T05:32:04.501Z,0
2016-11-07T05:33:04.027Z,0
2016-11-07T05:34:03.848Z,0
2016-11-07T05:35:03.862Z,0
2016-11-07T05:36:03.762Z,0
2016-11-07T05:37:05.048Z,0
2016-11-07T05:38:03.969Z,0
2016-11-07T05:39:03.775Z,0
2016-11-07T05:40:03.816Z,0
2016-11-07T05:41:03.848Z,0
2016-11-07T05:42:03.851Z,0
2016-11-07T05:43:03.974Z,0
2016-11-07T05:44:03.883Z,0
2016-11-07T05:45:03.819Z,0
2016-11-07T05:46:03.831Z,0
2016-11-07T05:47:03.820Z,0
2016-11-07T05:48:04.870Z,0
2016-11-07T05:49:03.835Z,0
2016-11-07T05:50:03.816Z,0
2016-11-07T05:51:03.809Z,0
2016-11-07T05:52:03.793Z,0
2016-11-07T05:53:03.853Z,0
2016-11-07T05:54:03.832Z,0
2016-11-07T05:55:03.787Z,0
2016-11-07T05:56:03.779Z,0
2016-11-07T05:57:03.843Z,0
2016-11-07T05:58:03.820Z,0
2016-11-07T05:59:03.785Z,0
2016-11-07T06:00:03.836Z,0
2016-11-07T06:01:03.797Z,0
2016-11-07T06:02:03.812Z,0
2016-11-07T06:03:03.819Z,0
2016-11-07T06:04:03.816Z,0
2016-11-07T06:05:03.823Z,0
2016-11-07T06:06:03.858Z,0
2016-11-07T06:07:03.888Z,0
2016-11-07T06:08:03.909Z,0
2016-11-07T06:09:04.095Z,0
2016-11-07T06:10:03.926Z,0
2016-11-07T06:11:03.854Z,0
2016-11-07T06:12:03.835Z,0
2016-11-07T06:13:03.851Z,0
2016-11-07T06:14:03.809Z,0
2016-11-07T06:15:03.835Z,0
2016-11-07T06:16:04.579Z,0
2016-11-07T06:17:03.832Z,0
2016-11-07T06:18:03.886Z,0
2016-11-07T06:19:03.833Z,0
2016-11-07T06:20:03.840Z,0
2016-11-07T06:21:03.852Z,0
2016-11-07T06:22:03.886Z,0
2016-11-07T06:23:03.879Z,0
2016-11-07T06:24:03.855Z,0
2016-11-07T06:25:03.852Z,0
2016-11-07T06:26:03.846Z,0
2016-11-07T06:27:03.851Z,0
2016-11-07T06:28:03.847Z,0
2016-11-07T06:29:03.864Z,0
2016-11-07T06:30:03.871Z,0
2016-11-07T06:31:03.842Z,0
2016-11-07T06:32:03.841Z,0
2016-11-07T06:33:03.893Z,0
2016-11-07T06:34:03.929Z,0
2016-11-07T06:35:03.871Z,0
2016-11-07T06:36:03.871Z,0
2016-11-07T06:37:03.847Z,0
2016-11-07T06:38:03.909Z,0
2016-11-07T06:39:03.953Z,0
2016-11-07T06:40:05.167Z,0
2016-11-07T06:41:03.894Z,0
2016-11-07T06:42:03.895Z,0
2016-11-07T06:43:03.909Z,0
2016-11-07T06:44:04.081Z,0
2016-11-07T06:45:03.860Z,0
2016-11-07T06:46:03.847Z,0
2016-11-07T06:47:03.842Z,0
2016-11-07T06:48:04.973Z,0
2016-11-07T06:49:04.430Z,5
2016-11-07T06:50:04.396Z,5
2016-11-07T06:51:03.865Z,5
2016-11-07T06:52:03.895Z,5
2016-11-07T06:53:03.873Z,5
2016-11-07T06:54:04.011Z,5
2016-11-07T06:55:03.962Z,5
2016-11-07T06:56:03.927Z,5
2016-11-07T06:57:03.868Z,5
2016-11-07T06:58:03.889Z,5
2016-11-07T06:59:03.855Z,5
2016-11-07T07:00:03.973Z,10
2016-11-07T07:01:03.921Z,10
2016-11-07T07:02:03.931Z,10
2016-11-07T07:03:04.436Z,10
2016-11-07T07:04:03.991Z,10
2016-11-07T07:05:04.010Z,10
2016-11-07T07:06:03.941Z,10
2016-11-07T07:07:04.020Z,10
2016-11-07T07:08:03.992Z,10
2016-11-07T07:09:04.999Z,10
2016-11-07T07:10:04.069Z,10
2016-11-07T07:11:03.988Z,15
2016-11-07T07:12:03.956Z,15
2016-11-07T07:13:03.949Z,15
2016-11-07T07:14:03.963Z,15
2016-11-07T07:15:03.985Z,15
2016-11-07T07:16:03.970Z,20
2016-11-07T07:17:03.975Z,20
2016-11-07T07:18:04.910Z,20
2016-11-07T07:19:03.929Z,20
2016-11-07T07:20:04.019Z,20
2016-11-07T07:21:04.129Z,20
2016-11-07T07:22:04.026Z,20
2016-11-07T07:23:03.981Z,20
2016-11-07T07:24:03.947Z,20
2016-11-07T07:25:04.085Z,20
2016-11-07T07:26:03.969Z,20
2016-11-07T07:27:03.890Z,20
2016-11-07T07:28:03.944Z,20
2016-11-07T07:29:03.943Z,20
2016-11-07T07:30:03.998Z,20
2016-11-07T07:31:03.959Z,25
2016-11-07T07:32:03.973Z,25
2016-11-07T07:33:03.985Z,25
2016-11-07T07:34:04.853Z,30
2016-11-07T07:35:03.881Z,30
2016-11-07T07:36:03.997Z,35
2016-11-07T07:37:03.915Z,35
2016-11-07T07:38:04.124Z,40
2016-11-07T07:39:03.900Z,40
2016-11-07T07:40:03.937Z,40
2016-11-07T07:41:04.074Z,40
2016-11-07T07:42:03.928Z,40
2016-11-07T07:43:03.915Z,40
2016-11-07T07:44:03.962Z,40
2016-11-07T07:45:03.880Z,40
2016-11-07T07:46:04.679Z,45
2016-11-07T07:47:03.928Z,45
2016-11-07T07:48:04.087Z,50
2016-11-07T07:49:03.908Z,50
2016-11-07T07:50:03.914Z,50
2016-11-07T07:51:03.942Z,55
2016-11-07T07:52:04.424Z,55
2016-11-07T07:53:03.925Z,55
2016-11-07T07:54:03.992Z,55
2016-11-07T07:55:03.922Z,55
2016-11-07T07:56:03.976Z,55
2016-11-07T07:57:03.880Z,60
2016-11-07T07:58:03.898Z,60
2016-11-07T07:59:03.922Z,60
2016-11-07T08:00:03.932Z,65
2016-11-07T08:01:03.900Z,65
2016-11-07T08:02:04.088Z,65
2016-11-07T08:03:03.924Z,65
2016-11-07T08:04:04.066Z,70
2016-11-07T08:05:04.177Z,70
2016-11-07T08:06:05.592Z,70
2016-11-07T08:07:05.392Z,75
2016-11-07T08:08:05.710Z,75
2016-11-07T08:09:05.089Z,75
2016-11-07T08:10:04.302Z,75
2016-11-07T08:11:04.929Z,75
2016-11-07T08:12:04.382Z,75
2016-11-07T08:13:04.276Z,70
2016-11-07T08:14:04.945Z,60
2016-11-07T08:15:04.692Z,55
2016-11-07T08:16:04.779Z,55
2016-11-07T08:17:03.911Z,50
2016-11-07T08:18:05.176Z,50
2016-11-07T08:19:04.814Z,50
2016-11-07T08:20:04.036Z,45
2016-11-07T08:21:04.008Z,45
2016-11-07T08:22:03.927Z,45
2016-11-07T08:23:04.200Z,50
2016-11-07T08:24:04.199Z,50
2016-11-07T08:25:03.950Z,55
2016-11-07T08:26:03.969Z,60
2016-11-07T08:27:04.151Z,65
2016-11-07T08:28:03.956Z,70
2016-11-07T08:29:04.241Z,75
2016-11-07T08:30:04.196Z,70
2016-11-07T08:31:04.191Z,75
2016-11-07T08:32:04.325Z,80
2016-11-07T08:33:04.619Z,85
2016-11-07T08:34:04.135Z,80
2016-11-07T08:35:04.037Z,80
2016-11-07T08:36:04.967Z,80
2016-11-07T08:37:04.042Z,80
2016-11-07T08:38:03.943Z,80
2016-11-07T08:39:03.957Z,80
2016-11-07T08:40:04.677Z,75
2016-11-07T08:41:04.311Z,75
2016-11-07T08:42:03.996Z,75
2016-11-07T08:43:04.829Z,75
2016-11-07T08:44:03.988Z,75
2016-11-07T08:45:04.183Z,75
2016-11-07T08:46:03.991Z,75
2016-11-07T08:47:04.031Z,75
2016-11-07T08:48:04.529Z,70
2016-11-07T08:49:05.056Z,65
2016-11-07T08:50:03.996Z,60
2016-11-07T08:51:03.944Z,60
2016-11-07T08:52:03.916Z,60
2016-11-07T08:53:03.932Z,60
2016-11-07T08:54:04.871Z,55
2016-11-07T08:55:03.986Z,50
2016-11-07T08:56:05.616Z,50
2016-11-07T08:57:04.014Z,50
2016-11-07T08:58:04.388Z,50
2016-11-07T08:59:04.714Z,50
2016-11-07T09:00:04.660Z,50
2016-11-07T09:01:03.938Z,55
2016-11-07T09:02:04.001Z,55
2016-11-07T09:03:06.786Z,50
2016-11-07T09:04:04.846Z,50
2016-11-07T09:05:04.391Z,50
2016-11-07T09:06:04.426Z,50
2016-11-07T09:07:05.237Z,50
2016-11-07T09:08:04.539Z,50
2016-11-07T09:09:03.996Z,50
2016-11-07T09:10:03.953Z,45
2016-11-07T09:11:04.107Z,50
2016-11-07T09:12:04.508Z,45
2016-11-07T09:13:03.959Z,50
2016-11-07T09:14:04.015Z,60
2016-11-07T09:15:04.036Z,65
2016-11-07T09:16:04.029Z,65
2016-11-07T09:17:04.586Z,70
2016-11-07T09:18:04.952Z,70
2016-11-07T09:19:03.997Z,65
2016-11-07T09:20:04.034Z,65
2016-11-07T09:21:04.029Z,65
2016-11-07T09:22:04.016Z,65
2016-11-07T09:23:04.199Z,65
2016-11-07T09:24:04.029Z,70
2016-11-07T09:25:03.966Z,70
2016-11-07T09:26:03.996Z,75
2016-11-07T09:27:04.081Z,80
2016-11-07T09:28:04.081Z,85
2016-11-07T09:29:05.102Z,90
2016-11-07T09:30:04.029Z,90
2016-11-07T09:31:04.239Z,90
2016-11-07T09:32:04.805Z,90
2016-11-07T09:33:03.946Z,90
2016-11-07T09:34:04.235Z,90
2016-11-07T09:35:04.441Z,90
2016-11-07T09:36:03.945Z,90
2016-11-07T09:37:04.095Z,85
2016-11-07T09:38:04.171Z,85
2016-11-07T09:39:04.213Z,85
2016-11-07T09:40:04.079Z,85
2016-11-07T09:41:04.740Z,85
2016-11-07T09:42:04.020Z,90
2016-11-07T09:43:04.420Z,90
2016-11-07T09:44:04.807Z,90
2016-11-07T09:45:04.370Z,85
2016-11-07T09:46:04.319Z,80
2016-11-07T09:47:04.776Z,75
2016-11-07T09:48:04.676Z,70
2016-11-07T09:49:04.289Z,70
2016-11-07T09:50:04.567Z,65
2016-11-07T09:51:04.498Z,65
2016-11-07T09:52:04.154Z,65
2016-11-07T09:53:05.739Z,60
2016-11-07T09:54:04.481Z,60
2016-11-07T09:55:04.216Z,65
2016-11-07T09:56:05.262Z,80
2016-11-07T09:57:04.250Z,85
2016-11-07T09:58:05.022Z,85
2016-11-07T09:59:04.245Z,85
2016-11-07T10:00:04.710Z,90
2016-11-07T10:01:04.231Z,100
2016-11-07T10:02:04.878Z,100
2016-11-07T10:03:04.189Z,100
2016-11-07T10:04:04.196Z,100
2016-11-07T10:05:05.252Z,100
2016-11-07T10:06:04.440Z,95
2016-11-07T10:07:04.711Z,95
2016-11-07T10:08:05.183Z,100
2016-11-07T10:09:04.166Z,95
2016-11-07T10:10:04.155Z,95
2016-11-07T10:11:04.792Z,90
2016-11-07T10:12:04.201Z,85
2016-11-07T10:13:04.155Z,85
2016-11-07T10:14:04.695Z,80
2016-11-07T10:15:04.130Z,75
2016-11-07T10:16:04.193Z,75
2016-11-07T10:17:04.172Z,75
2016-11-07T10:18:04.825Z,70
2016-11-07T10:19:04.132Z,65
2016-11-07T10:20:04.767Z,65
2016-11-07T10:21:04.227Z,60
2016-11-07T10:22:04.268Z,60
2016-11-07T10:23:04.712Z,60
2016-11-07T10:24:04.210Z,60
2016-11-07T10:25:04.261Z,60
2016-11-07T10:26:04.219Z,60
2016-11-07T10:27:05.080Z,60
2016-11-07T10:28:04.210Z,60
2016-11-07T10:29:04.518Z,60
2016-11-07T10:30:04.337Z,60
2016-11-07T10:31:04.753Z,60
2016-11-07T10:32:05.125Z,60
2016-11-07T10:33:04.254Z,60
2016-11-07T10:34:04.932Z,60
2016-11-07T10:35:05.310Z,60
2016-11-07T10:36:04.212Z,60
2016-11-07T10:37:04.255Z,60
2016-11-07T10:38:04.097Z,60
2016-11-07T10:39:04.110Z,55
2016-11-07T10:40:04.008Z,55
2016-11-07T10:41:04.271Z,50
2016-11-07T10:42:04.235Z,45
2016-11-07T10:43:04.600Z,40
2016-11-07T10:44:04.238Z,35
2016-11-07T10:45:04.633Z,30
2016-11-07T10:46:04.143Z,30
2016-11-07T10:47:05.704Z,35
2016-11-07T10:48:05.471Z,30
2016-11-07T10:49:04.661Z,30
2016-11-07T10:50:04.094Z,30
2016-11-07T10:51:04.329Z,35
2016-11-07T10:52:05.550Z,40
2016-11-07T10:53:04.084Z,40
2016-11-07T10:54:04.903Z,45
2016-11-07T10:55:04.251Z,55
2016-11-07T10:56:04.820Z,65
2016-11-07T10:57:04.082Z,65
2016-11-07T10:58:05.207Z,60
2016-11-07T10:59:04.091Z,55
2016-11-07T11:00:04.197Z,50
2016-11-07T11:01:04.097Z,55
2016-11-07T11:02:04.110Z,60
2016-11-07T11:03:04.529Z,60
2016-11-07T11:04:04.518Z,65
2016-11-07T11:05:04.762Z,70
2016-11-07T11:06:04.257Z,75
2016-11-07T11:07:04.177Z,75
2016-11-07T11:08:04.139Z,75
2016-11-07T11:09:05.131Z,80
2016-11-07T11:10:04.311Z,80
2016-11-07T11:11:04.076Z,85
2016-11-07T11:12:04.018Z,90
2016-11-07T11:13:04.580Z,90
2016-11-07T11:14:04.874Z,90
2016-11-07T11:15:04.308Z,90
2016-11-07T11:16:04.260Z,85
2016-11-07T11:17:04.526Z,85
2016-11-07T11:18:04.318Z,80
2016-11-07T11:19:04.439Z,80
2016-11-07T11:20:04.277Z,80
2016-11-07T11:21:04.795Z,85
2016-11-07T11:22:04.158Z,85
2016-11-07T11:23:04.113Z,85
2016-11-07T11:24:04.137Z,90
2016-11-07T11:25:04.763Z,95
2016-11-07T11:26:04.098Z,95
2016-11-07T11:27:04.108Z,95
2016-11-07T11:28:04.254Z,95
2016-11-07T11:29:04.142Z,90
2016-11-07T11:30:04.111Z,90
2016-11-07T11:31:04.161Z,90
2016-11-07T11:32:04.127Z,80
2016-11-07T11:33:04.097Z,85
2016-11-07T11:34:04.122Z,85
2016-11-07T11:35:04.121Z,85
2016-11-07T11:36:04.209Z,90
2016-11-07T11:37:04.114Z,95
2016-11-07T11:38:04.151Z,95
2016-11-07T11:39:04.884Z,90
2016-11-07T11:40:04.095Z,85
2016-11-07T11:41:04.078Z,80
2016-11-07T11:42:04.053Z,80
2016-11-07T11:43:04.167Z,75
2016-11-07T11:44:04.170Z,80
2016-11-07T11:45:04.218Z,85
2016-11-07T11:46:04.151Z,85
2016-11-07T11:47:04.143Z,90
2016-11-07T11:48:04.218Z,90
2016-11-07T11:49:04.143Z,95
2016-11-07T11:50:04.504Z,100
2016-11-07T11:51:06.834Z,100
2016-11-07T11:52:06.175Z,100
2016-11-07T11:53:05.410Z,100
2016-11-07T11:54:04.549Z,100
2016-11-07T11:55:06.324Z,100
2016-11-07T11:56:04.120Z,100
2016-11-07T11:57:04.103Z,100
2016-11-07T11:58:04.101Z,100
2016-11-07T11:59:04.367Z,100
2016-11-07T12:00:04.408Z,100
2016-11-07T12:01:04.500Z,100
2016-11-07T12:02:04.228Z,100
2016-11-07T12:03:04.203Z,100
2016-11-07T12:04:04.766Z,95
2016-11-07T12:05:04.693Z,100
2016-11-07T12:06:04.322Z,100
2016-11-07T12:07:04.173Z,105
2016-11-07T12:08:04.235Z,105
2016-11-07T12:09:04.217Z,110
2016-11-07T12:10:04.215Z,110
2016-11-07T12:11:04.190Z,105
2016-11-07T12:12:04.507Z,105
2016-11-07T12:13:05.053Z,100
2016-11-07T12:14:04.212Z,105
2016-11-07T12:15:04.554Z,105
2016-11-07T12:16:04.177Z,105
2016-11-07T12:17:04.232Z,110
2016-11-07T12:18:04.283Z,110
2016-11-07T12:19:04.806Z,110
2016-11-07T12:20:04.180Z,110
2016-11-07T12:21:04.286Z,110
2016-11-07T12:22:04.155Z,110
2016-11-07T12:23:04.822Z,115
2016-11-07T12:24:04.253Z,115
2016-11-07T12:25:04.128Z,115
2016-11-07T12:26:04.220Z,110
2016-11-07T12:27:04.182Z,105
2016-11-07T12:28:04.174Z,105
2016-11-07T12:29:04.215Z,105
2016-11-07T12:30:05.167Z,90
2016-11-07T12:31:04.278Z,100
2016-11-07T12:32:04.159Z,105
2016-11-07T12:33:04.143Z,85
2016-11-07T12:34:04.188Z,70
2016-11-07T12:35:04.195Z,55
2016-11-07T12:36:04.158Z,55
2016-11-07T12:37:04.200Z,45
2016-11-07T12:38:04.103Z,50
2016-11-07T12:39:04.128Z,55
2016-11-07T12:40:04.119Z,60
2016-11-07T12:41:04.094Z,70
2016-11-07T12:42:04.200Z,75
2016-11-07T12:43:04.132Z,75
2016-11-07T12:44:04.173Z,75
2016-11-07T12:45:04.168Z,65
2016-11-07T12:46:04.135Z,55
2016-11-07T12:47:04.233Z,50
2016-11-07T12:48:04.158Z,50
2016-11-07T12:49:04.212Z,55
2016-11-07T12:50:04.101Z,55
2016-11-07T12:51:04.118Z,55
2016-11-07T12:52:04.139Z,45
2016-11-07T12:53:04.140Z,35
2016-11-07T12:54:04.158Z,35
2016-11-07T12:55:04.167Z,45
2016-11-07T12:56:04.225Z,55
2016-11-07T12:57:04.129Z,55
2016-11-07T12:58:04.220Z,55
2016-11-07T12:59:04.137Z,65
2016-11-07T13:00:04.215Z,65
2016-11-07T13:01:04.140Z,60
2016-11-07T13:02:04.190Z,65
2016-11-07T13:03:04.334Z,70
2016-11-07T13:04:04.238Z,70
2016-11-07T13:05:04.192Z,70
2016-11-07T13:06:04.166Z,70
2016-11-07T13:07:04.157Z,70
2016-11-07T13:08:04.161Z,65
2016-11-07T13:09:04.183Z,65
2016-11-07T13:10:04.170Z,60
2016-11-07T13:11:04.168Z,60
2016-11-07T13:12:04.147Z,60
2016-11-07T13:13:04.181Z,60
2016-11-07T13:14:04.136Z,55
2016-11-07T13:15:04.098Z,55
2016-11-07T13:16:04.173Z,55
2016-11-07T13:17:04.173Z,55
2016-11-07T13:18:04.221Z,55
2016-11-07T13:19:04.856Z,55
2016-11-07T13:20:05.112Z,55
2016-11-07T13:21:05.189Z,60
2016-11-07T13:22:05.140Z,60
2016-11-07T13:23:04.412Z,65
2016-11-07T13:24:05.240Z,65
2016-11-07T13:25:04.133Z,70
2016-11-07T13:26:05.370Z,70
2016-11-07T13:27:04.161Z,75
2016-11-07T13:28:04.169Z,80
2016-11-07T13:29:04.189Z,80
2016-11-07T13:30:04.209Z,80
2016-11-07T13:31:04.437Z,80
2016-11-07T13:32:04.225Z,80
2016-11-07T13:33:06.059Z,70
2016-11-07T13:34:04.592Z,60
2016-11-07T13:35:04.846Z,50
2016-11-07T13:36:04.164Z,40
2016-11-07T13:37:04.211Z,40
2016-11-07T13:38:05.145Z,40
2016-11-07T13:39:06.402Z,45
2016-11-07T13:40:04.178Z,55
2016-11-07T13:41:04.212Z,45
2016-11-07T13:42:04.249Z,45
2016-11-07T13:43:04.255Z,55
2016-11-07T13:44:04.267Z,50
2016-11-07T13:45:04.215Z,50
2016-11-07T13:46:04.648Z,50
2016-11-07T13:47:04.228Z,55
2016-11-07T13:48:04.217Z,50
2016-11-07T13:49:04.188Z,55
2016-11-07T13:50:04.254Z,55
2016-11-07T13:51:04.225Z,55
2016-11-07T13:52:04.990Z,55
2016-11-07T13:53:04.245Z,55
2016-11-07T13:54:04.226Z,55
2016-11-07T13:55:05.409Z,55
2016-11-07T13:56:05.403Z,55
2016-11-07T13:57:04.867Z,60
2016-11-07T13:58:04.916Z,65
2016-11-07T13:59:04.305Z,60
2016-11-07T14:00:04.200Z,60
2016-11-07T14:01:04.299Z,60
2016-11-07T14:02:04.216Z,65
2016-11-07T14:03:05.364Z,65
2016-11-07T14:04:04.200Z,70
2016-11-07T14:05:04.897Z,70
2016-11-07T14:06:04.245Z,50
2016-11-07T14:07:04.323Z,65
2016-11-07T14:08:04.893Z,60
2016-11-07T14:09:05.286Z,65
2016-11-07T14:10:04.579Z,70
2016-11-07T14:11:04.431Z,80
2016-11-07T14:12:04.537Z,90
2016-11-07T14:13:04.338Z,95
2016-11-07T14:14:04.768Z,90
2016-11-07T14:15:04.239Z,85
2016-11-07T14:16:04.229Z,70
2016-11-07T14:17:04.549Z,60
2016-11-07T14:18:05.110Z,50
2016-11-07T14:19:04.268Z,50
2016-11-07T14:20:04.235Z,40
2016-11-07T14:21:05.530Z,45
2016-11-07T14:22:04.216Z,45
2016-11-07T14:23:05.801Z,45
2016-11-07T14:24:04.258Z,40
2016-11-07T14:25:04.235Z,40
2016-11-07T14:26:04.271Z,35
2016-11-07T14:27:04.289Z,30
2016-11-07T14:28:04.281Z,25